Annapolis Junction, MD

12:26 PM EST on February 07, 2016 (GMT -0500)
Savage | | Change Station
CLOSE
Current Station
Personal Weather Station
Location: Jessup, MD
Elevation: 236 ft
Nearby Weather Stations

Elev 236 ft 39.15 °N, 76.81 °W | Updated 15 seconds ago

Clear
Clear
45.5 °F
Feels Like 44 °F
N
3.2
Wind Variable Wind from East

Today
High -- | Low -- °F
--% Chance of Precip.
Yesterday
High -- | Low -- °F
Precip. -- in
Pressure 30.14 in
Visibility 10.0 miles
Clouds Clear
Windchill 44 °F
Dew Point 24 °F
Humidity 42%
Rainfall 0.00 in
Snow Depth Not available.
7:08 AM 5:34 PM
Waning Crescent, 1% visible
METAR KFME 071706Z AUTO 04004KT 10SM CLR 05/M05 A3014 RMK AO1
Pressure 30.14 in
Visibility 10.0 miles
Clouds Clear
Windchill 44 °F
Dew Point 24 °F
Humidity 42%
Rainfall 0.00 in
Snow Depth Not available.
7:08 AM 5:34 PM
Waning Crescent, 1% visible
METAR KFME 071706Z AUTO 04004KT 10SM CLR 05/M05 A3014 RMK AO1

10-Day Weather Forecast

Almanac

Astronomy

Feb. 07, 2016 Rise Set
Actual Time
Civil Twilight
Nautical Twilight
Astronomical Twilight
Moon
Length of Visible Light
Length of Day
Tomorrow will be .
, % of the Moon is Illuminated

Today's Extremes

State Highs State Lows

Community

WunderPhotos

Upload Photos

1,891,237 photos uploaded!

WunderBlog® & News

Nearby

Air Quality

  Air Quality AQ Index Pollutant
Not available.

Snow Depth

Station Depth Elevation

Earthquake Activity

City Distance Mag. Time & Date
Minimum magnitude displayed is 2.5.

Coastal Water Temperatures

Place Temperature

Stations

Nearby Weather Stations

Station Location Temp. Windchill Dew Point Humidity Wind Precip. Elev Updated Type
                   

Watches & Warnings

There are currently no watches in effect.